Terminal Aerodrome Forecast
Issued by NWS

Home | Current Version | Previous Version | Text Only | Print | Product List | Glossary Off
Versions: 1 2 3 4 5 6 7 8 9 10 11 12 13 14 15 16 17 18 19

670
FTUS43 KABR 240536
TAFPIR
TAF
KPIR 240536Z 2406/2506 VRB06KT P6SM BKN150
     FM240700 12011KT P6SM VCSH OVC080
     FM241400 30017G24KT P6SM BKN150
     FM250300 02009KT P6SM BKN150=

USA.gov is the U.S. government's official web portal to all federal, state and local government web resources and services.